sensor_id;sensor_type;location;lat;lon;timestamp;P1;durP1;ratioP1;P2;durP2;ratioP2
4023;SDS011;2026;51.002;13.668;2023-02-15T00:03:19;64.27;;;27.17;;
4023;SDS011;2026;51.002;13.668;2023-02-15T00:08:23;133.20;;;30.83;;
4023;SDS011;2026;51.002;13.668;2023-02-15T00:13:27;79.47;;;28.60;;
4023;SDS011;2026;51.002;13.668;2023-02-15T00:18:30;83.30;;;29.23;;
4023;SDS011;2026;51.002;13.668;2023-02-15T00:23:33;72.87;;;27.30;;
4023;SDS011;2026;51.002;13.668;2023-02-15T00:28:37;131.47;;;28.17;;
4023;SDS011;2026;51.002;13.668;2023-02-15T00:33:41;56.30;;;22.80;;
4023;SDS011;2026;51.002;13.668;2023-02-15T00:38:44;38.10;;;17.13;;
4023;SDS011;2026;51.002;13.668;2023-02-15T00:43:48;29.73;;;15.90;;
4023;SDS011;2026;51.002;13.668;2023-02-15T00:48:51;30.63;;;14.87;;
4023;SDS011;2026;51.002;13.668;2023-02-15T00:53:54;35.60;;;16.03;;
4023;SDS011;2026;51.002;13.668;2023-02-15T00:58:58;23.70;;;13.50;;
4023;SDS011;2026;51.002;13.668;2023-02-15T01:04:01;29.87;;;14.57;;
4023;SDS011;2026;51.002;13.668;2023-02-15T01:09:04;25.47;;;13.80;;
4023;SDS011;2026;51.002;13.668;2023-02-15T01:14:09;25.50;;;13.00;;
4023;SDS011;2026;51.002;13.668;2023-02-15T01:19:12;25.30;;;12.67;;
4023;SDS011;2026;51.002;13.668;2023-02-15T01:24:16;23.17;;;12.60;;
4023;SDS011;2026;51.002;13.668;2023-02-15T01:29:20;24.80;;;12.40;;
4023;SDS011;2026;51.002;13.668;2023-02-15T01:34:23;27.00;;;11.27;;
4023;SDS011;2026;51.002;13.668;2023-02-15T01:39:26;21.77;;;11.17;;
4023;SDS011;2026;51.002;13.668;2023-02-15T01:44:48;19.67;;;10.67;;
4023;SDS011;2026;51.002;13.668;2023-02-15T01:50:00;16.40;;;8.50;;
4023;SDS011;2026;51.002;13.668;2023-02-15T01:55:07;16.40;;;8.97;;
4023;SDS011;2026;51.002;13.668;2023-02-15T02:00:13;23.70;;;10.93;;
4023;SDS011;2026;51.002;13.668;2023-02-15T02:05:21;31.13;;;14.83;;
4023;SDS011;2026;51.002;13.668;2023-02-15T02:10:25;33.93;;;15.40;;
4023;SDS011;2026;51.002;13.668;2023-02-15T02:15:34;27.60;;;14.00;;
4023;SDS011;2026;51.002;13.668;2023-02-15T02:20:59;26.07;;;12.13;;
4023;SDS011;2026;51.002;13.668;2023-02-15T02:26:36;26.00;;;12.47;;
4023;SDS011;2026;51.002;13.668;2023-02-15T02:37:43;21.03;;;10.90;;
4023;SDS011;2026;51.002;13.668;2023-02-15T02:42:54;19.23;;;11.37;;
4023;SDS011;2026;51.002;13.668;2023-02-15T02:48:02;21.00;;;10.50;;
4023;SDS011;2026;51.002;13.668;2023-02-15T02:53:10;22.83;;;11.33;;
4023;SDS011;2026;51.002;13.668;2023-02-15T02:58:14;21.37;;;11.50;;
4023;SDS011;2026;51.002;13.668;2023-02-15T03:03:23;28.63;;;13.10;;
4023;SDS011;2026;51.002;13.668;2023-02-15T03:08:30;25.97;;;12.87;;
4023;SDS011;2026;51.002;13.668;2023-02-15T03:13:38;33.90;;;14.70;;
4023;SDS011;2026;51.002;13.668;2023-02-15T03:18:44;24.43;;;12.33;;
4023;SDS011;2026;51.002;13.668;2023-02-15T03:23:57;25.23;;;11.40;;
4023;SDS011;2026;51.002;13.668;2023-02-15T03:29:05;24.50;;;10.87;;
4023;SDS011;2026;51.002;13.668;2023-02-15T03:34:11;21.43;;;11.27;;
4023;SDS011;2026;51.002;13.668;2023-02-15T03:39:20;25.60;;;12.07;;
4023;SDS011;2026;51.002;13.668;2023-02-15T03:44:27;19.83;;;10.83;;
4023;SDS011;2026;51.002;13.668;2023-02-15T03:49:36;23.33;;;11.30;;
4023;SDS011;2026;51.002;13.668;2023-02-15T03:54:43;20.17;;;11.10;;
4023;SDS011;2026;51.002;13.668;2023-02-15T03:59:48;20.40;;;10.93;;
4023;SDS011;2026;51.002;13.668;2023-02-15T04:05:28;22.97;;;11.33;;
4023;SDS011;2026;51.002;13.668;2023-02-15T04:10:32;21.33;;;10.97;;
4023;SDS011;2026;51.002;13.668;2023-02-15T04:15:53;18.27;;;10.73;;
4023;SDS011;2026;51.002;13.668;2023-02-15T04:21:09;26.10;;;11.73;;
4023;SDS011;2026;51.002;13.668;2023-02-15T04:26:31;22.80;;;11.63;;
4023;SDS011;2026;51.002;13.668;2023-02-15T04:31:34;22.60;;;12.00;;
4023;SDS011;2026;51.002;13.668;2023-02-15T04:36:37;24.30;;;11.70;;
4023;SDS011;2026;51.002;13.668;2023-02-15T04:41:42;26.47;;;11.53;;
4023;SDS011;2026;51.002;13.668;2023-02-15T04:46:45;19.60;;;10.80;;
4023;SDS011;2026;51.002;13.668;2023-02-15T04:51:48;22.00;;;11.47;;
4023;SDS011;2026;51.002;13.668;2023-02-15T04:56:52;19.23;;;10.97;;
4023;SDS011;2026;51.002;13.668;2023-02-15T05:01:55;20.90;;;11.03;;
4023;SDS011;2026;51.002;13.668;2023-02-15T05:06:58;16.73;;;9.90;;
4023;SDS011;2026;51.002;13.668;2023-02-15T05:12:03;18.70;;;10.30;;
4023;SDS011;2026;51.002;13.668;2023-02-15T05:17:06;21.03;;;9.90;;
4023;SDS011;2026;51.002;13.668;2023-02-15T05:22:09;18.33;;;9.70;;
4023;SDS011;2026;51.002;13.668;2023-02-15T05:27:13;23.27;;;10.43;;
4023;SDS011;2026;51.002;13.668;2023-02-15T05:32:34;24.53;;;11.47;;
4023;SDS011;2026;51.002;13.668;2023-02-15T05:37:37;18.53;;;11.00;;
4023;SDS011;2026;51.002;13.668;2023-02-15T05:42:41;25.63;;;11.43;;
4023;SDS011;2026;51.002;13.668;2023-02-15T05:47:44;21.20;;;11.20;;
4023;SDS011;2026;51.002;13.668;2023-02-15T05:52:47;17.20;;;10.10;;
4023;SDS011;2026;51.002;13.668;2023-02-15T05:57:54;22.03;;;11.40;;
4023;SDS011;2026;51.002;13.668;2023-02-15T06:02:57;20.33;;;11.77;;
4023;SDS011;2026;51.002;13.668;2023-02-15T06:08:00;17.93;;;10.67;;
4023;SDS011;2026;51.002;13.668;2023-02-15T06:18:12;24.83;;;11.90;;
4023;SDS011;2026;51.002;13.668;2023-02-15T06:23:15;26.47;;;11.63;;
4023;SDS011;2026;51.002;13.668;2023-02-15T06:28:20;30.90;;;13.70;;
4023;SDS011;2026;51.002;13.668;2023-02-15T06:33:23;20.60;;;11.27;;
4023;SDS011;2026;51.002;13.668;2023-02-15T06:38:26;25.27;;;11.57;;
4023;SDS011;2026;51.002;13.668;2023-02-15T06:43:30;18.17;;;10.50;;
4023;SDS011;2026;51.002;13.668;2023-02-15T06:48:33;19.67;;;11.50;;
4023;SDS011;2026;51.002;13.668;2023-02-15T06:53:36;22.43;;;11.60;;
4023;SDS011;2026;51.002;13.668;2023-02-15T06:58:40;23.70;;;12.97;;
4023;SDS011;2026;51.002;13.668;2023-02-15T07:03:44;27.00;;;14.50;;
4023;SDS011;2026;51.002;13.668;2023-02-15T07:08:47;28.30;;;14.67;;
4023;SDS011;2026;51.002;13.668;2023-02-15T07:13:52;34.30;;;17.90;;
4023;SDS011;2026;51.002;13.668;2023-02-15T07:18:55;39.03;;;18.90;;
4023;SDS011;2026;51.002;13.668;2023-02-15T07:23:57;48.50;;;25.03;;
4023;SDS011;2026;51.002;13.668;2023-02-15T07:29:02;53.40;;;25.10;;
4023;SDS011;2026;51.002;13.668;2023-02-15T07:34:05;31.83;;;17.73;;
4023;SDS011;2026;51.002;13.668;2023-02-15T07:39:08;24.67;;;13.60;;
4023;SDS011;2026;51.002;13.668;2023-02-15T07:44:13;22.40;;;11.80;;
4023;SDS011;2026;51.002;13.668;2023-02-15T07:49:17;17.23;;;9.93;;
4023;SDS011;2026;51.002;13.668;2023-02-15T07:54:20;15.70;;;10.10;;
4023;SDS011;2026;51.002;13.668;2023-02-15T07:59:24;18.10;;;10.70;;
4023;SDS011;2026;51.002;13.668;2023-02-15T08:04:28;17.60;;;11.07;;
4023;SDS011;2026;51.002;13.668;2023-02-15T08:57:02;23.60;;;10.67;;
4023;SDS011;2026;51.002;13.668;2023-02-15T09:02:09;18.63;;;10.90;;
4023;SDS011;2026;51.002;13.668;2023-02-15T09:07:12;10.93;;;7.23;;
4023;SDS011;2026;51.002;13.668;2023-02-15T09:12:16;17.20;;;9.63;;
4023;SDS011;2026;51.002;13.668;2023-02-15T09:17:19;19.33;;;10.30;;
4023;SDS011;2026;51.002;13.668;2023-02-15T09:22:22;17.33;;;8.87;;
4023;SDS011;2026;51.002;13.668;2023-02-15T09:27:27;23.03;;;10.20;;
4023;SDS011;2026;51.002;13.668;2023-02-15T09:32:30;19.73;;;11.13;;
4023;SDS011;2026;51.002;13.668;2023-02-15T09:37:32;22.40;;;11.13;;
4023;SDS011;2026;51.002;13.668;2023-02-15T09:42:41;19.67;;;9.77;;
4023;SDS011;2026;51.002;13.668;2023-02-15T09:48:10;18.00;;;9.40;;
4023;SDS011;2026;51.002;13.668;2023-02-15T09:53:42;17.13;;;9.10;;
4023;SDS011;2026;51.002;13.668;2023-02-15T09:58:59;19.37;;;10.07;;
4023;SDS011;2026;51.002;13.668;2023-02-15T10:04:19;16.30;;;9.80;;
4023;SDS011;2026;51.002;13.668;2023-02-15T10:15:11;20.40;;;10.30;;
4023;SDS011;2026;51.002;13.668;2023-02-15T10:20:27;21.07;;;10.53;;
4023;SDS011;2026;51.002;13.668;2023-02-15T10:25:39;19.90;;;9.30;;
4023;SDS011;2026;51.002;13.668;2023-02-15T10:30:47;17.03;;;9.40;;
4023;SDS011;2026;51.002;13.668;2023-02-15T10:35:54;17.10;;;9.40;;
4023;SDS011;2026;51.002;13.668;2023-02-15T10:41:12;17.30;;;9.30;;
4023;SDS011;2026;51.002;13.668;2023-02-15T10:46:32;15.23;;;9.23;;
4023;SDS011;2026;51.002;13.668;2023-02-15T10:51:49;16.00;;;9.40;;
4023;SDS011;2026;51.002;13.668;2023-02-15T10:57:03;17.17;;;8.93;;
4023;SDS011;2026;51.002;13.668;2023-02-15T11:02:13;18.07;;;10.23;;
4023;SDS011;2026;51.002;13.668;2023-02-15T11:07:24;19.50;;;9.90;;
4023;SDS011;2026;51.002;13.668;2023-02-15T11:12:31;17.37;;;9.70;;
4023;SDS011;2026;51.002;13.668;2023-02-15T11:17:37;17.23;;;10.20;;
4023;SDS011;2026;51.002;13.668;2023-02-15T11:22:44;22.53;;;11.10;;
4023;SDS011;2026;51.002;13.668;2023-02-15T11:27:50;18.07;;;10.57;;
4023;SDS011;2026;51.002;13.668;2023-02-15T11:32:57;21.00;;;11.60;;
4023;SDS011;2026;51.002;13.668;2023-02-15T11:38:10;20.63;;;11.67;;
4023;SDS011;2026;51.002;13.668;2023-02-15T11:43:20;20.70;;;10.77;;
4023;SDS011;2026;51.002;13.668;2023-02-15T11:48:30;20.33;;;10.13;;
4023;SDS011;2026;51.002;13.668;2023-02-15T11:53:36;18.23;;;9.77;;
4023;SDS011;2026;51.002;13.668;2023-02-15T11:58:41;16.77;;;10.47;;
4023;SDS011;2026;51.002;13.668;2023-02-15T12:03:49;14.93;;;8.80;;
4023;SDS011;2026;51.002;13.668;2023-02-15T12:08:55;15.90;;;8.93;;
4023;SDS011;2026;51.002;13.668;2023-02-15T12:14:05;12.60;;;8.40;;
4023;SDS011;2026;51.002;13.668;2023-02-15T12:19:18;19.10;;;9.50;;
4023;SDS011;2026;51.002;13.668;2023-02-15T12:24:34;18.43;;;9.30;;
4023;SDS011;2026;51.002;13.668;2023-02-15T12:29:41;16.40;;;9.70;;
4023;SDS011;2026;51.002;13.668;2023-02-15T12:34:48;15.40;;;8.73;;
4023;SDS011;2026;51.002;13.668;2023-02-15T12:39:54;12.73;;;8.30;;
4023;SDS011;2026;51.002;13.668;2023-02-15T12:44:59;16.70;;;8.60;;
4023;SDS011;2026;51.002;13.668;2023-02-15T12:50:13;25.87;;;9.83;;
4023;SDS011;2026;51.002;13.668;2023-02-15T12:55:21;18.17;;;11.17;;
4023;SDS011;2026;51.002;13.668;2023-02-15T13:00:28;15.20;;;9.20;;
4023;SDS011;2026;51.002;13.668;2023-02-15T13:05:38;14.50;;;8.70;;
4023;SDS011;2026;51.002;13.668;2023-02-15T13:10:52;25.60;;;9.87;;
4023;SDS011;2026;51.002;13.668;2023-02-15T13:15:58;17.90;;;10.37;;
4023;SDS011;2026;51.002;13.668;2023-02-15T13:21:06;18.97;;;10.13;;
4023;SDS011;2026;51.002;13.668;2023-02-15T13:26:30;25.17;;;11.57;;
4023;SDS011;2026;51.002;13.668;2023-02-15T13:31:34;19.90;;;10.80;;
4023;SDS011;2026;51.002;13.668;2023-02-15T13:36:43;22.13;;;11.10;;
4023;SDS011;2026;51.002;13.668;2023-02-15T13:41:53;18.73;;;10.90;;
4023;SDS011;2026;51.002;13.668;2023-02-15T13:47:05;20.60;;;11.97;;
4023;SDS011;2026;51.002;13.668;2023-02-15T13:52:21;22.57;;;11.20;;
4023;SDS011;2026;51.002;13.668;2023-02-15T13:57:31;19.07;;;10.67;;
4023;SDS011;2026;51.002;13.668;2023-02-15T14:03:13;24.70;;;11.47;;
4023;SDS011;2026;51.002;13.668;2023-02-15T14:08:39;24.87;;;12.37;;
4023;SDS011;2026;51.002;13.668;2023-02-15T14:14:00;24.90;;;13.10;;
4023;SDS011;2026;51.002;13.668;2023-02-15T14:19:20;22.13;;;11.83;;
4023;SDS011;2026;51.002;13.668;2023-02-15T14:24:33;22.30;;;12.70;;
4023;SDS011;2026;51.002;13.668;2023-02-15T14:29:46;21.47;;;11.87;;
4023;SDS011;2026;51.002;13.668;2023-02-15T14:34:52;26.67;;;12.60;;
4023;SDS011;2026;51.002;13.668;2023-02-15T14:40:01;21.37;;;11.63;;
4023;SDS011;2026;51.002;13.668;2023-02-15T14:45:27;21.77;;;12.00;;
4023;SDS011;2026;51.002;13.668;2023-02-15T14:50:39;19.67;;;11.77;;
4023;SDS011;2026;51.002;13.668;2023-02-15T14:55:46;23.57;;;12.13;;
4023;SDS011;2026;51.002;13.668;2023-02-15T15:00:49;26.03;;;13.33;;
4023;SDS011;2026;51.002;13.668;2023-02-15T15:05:53;27.60;;;14.20;;
4023;SDS011;2026;51.002;13.668;2023-02-15T15:16:48;24.77;;;13.63;;
4023;SDS011;2026;51.002;13.668;2023-02-15T15:21:54;28.90;;;13.87;;
4023;SDS011;2026;51.002;13.668;2023-02-15T15:32:35;31.90;;;16.30;;
4023;SDS011;2026;51.002;13.668;2023-02-15T15:43:23;27.67;;;15.17;;
4023;SDS011;2026;51.002;13.668;2023-02-15T15:48:45;26.10;;;14.27;;
4023;SDS011;2026;51.002;13.668;2023-02-15T15:53:49;29.17;;;14.87;;
4023;SDS011;2026;51.002;13.668;2023-02-15T15:58:55;27.53;;;16.90;;
4023;SDS011;2026;51.002;13.668;2023-02-15T16:04:04;26.27;;;15.03;;
4023;SDS011;2026;51.002;13.668;2023-02-15T16:09:11;29.10;;;15.23;;
4023;SDS011;2026;51.002;13.668;2023-02-15T16:14:16;27.13;;;15.70;;
4023;SDS011;2026;51.002;13.668;2023-02-15T16:19:26;28.10;;;15.07;;
4023;SDS011;2026;51.002;13.668;2023-02-15T16:24:38;32.07;;;17.83;;
4023;SDS011;2026;51.002;13.668;2023-02-15T16:30:13;29.13;;;16.30;;
4023;SDS011;2026;51.002;13.668;2023-02-15T16:35:22;35.10;;;18.20;;
4023;SDS011;2026;51.002;13.668;2023-02-15T16:40:33;34.13;;;16.83;;
4023;SDS011;2026;51.002;13.668;2023-02-15T16:45:43;29.00;;;15.57;;
4023;SDS011;2026;51.002;13.668;2023-02-15T16:50:48;28.90;;;15.70;;
4023;SDS011;2026;51.002;13.668;2023-02-15T16:55:55;26.73;;;16.10;;
4023;SDS011;2026;51.002;13.668;2023-02-15T17:00:59;35.90;;;16.43;;
4023;SDS011;2026;51.002;13.668;2023-02-15T17:06:16;33.30;;;17.40;;
4023;SDS011;2026;51.002;13.668;2023-02-15T17:11:32;31.30;;;14.93;;
4023;SDS011;2026;51.002;13.668;2023-02-15T17:16:40;32.70;;;15.70;;
4023;SDS011;2026;51.002;13.668;2023-02-15T17:21:49;34.07;;;18.13;;
4023;SDS011;2026;51.002;13.668;2023-02-15T17:26:54;35.50;;;17.60;;
4023;SDS011;2026;51.002;13.668;2023-02-15T17:32:01;41.87;;;21.47;;
4023;SDS011;2026;51.002;13.668;2023-02-15T17:37:10;138.97;;;52.87;;
4023;SDS011;2026;51.002;13.668;2023-02-15T17:42:15;70.83;;;30.73;;
4023;SDS011;2026;51.002;13.668;2023-02-15T17:47:19;40.47;;;21.20;;
4023;SDS011;2026;51.002;13.668;2023-02-15T17:52:24;33.70;;;17.80;;
4023;SDS011;2026;51.002;13.668;2023-02-15T17:57:32;46.93;;;22.90;;
4023;SDS011;2026;51.002;13.668;2023-02-15T18:02:35;55.00;;;25.87;;
4023;SDS011;2026;51.002;13.668;2023-02-15T18:07:57;54.03;;;24.40;;
4023;SDS011;2026;51.002;13.668;2023-02-15T18:13:18;48.53;;;23.77;;
4023;SDS011;2026;51.002;13.668;2023-02-15T18:18:22;48.60;;;23.20;;
4023;SDS011;2026;51.002;13.668;2023-02-15T18:23:26;49.97;;;26.77;;
4023;SDS011;2026;51.002;13.668;2023-02-15T18:28:29;50.30;;;28.17;;
4023;SDS011;2026;51.002;13.668;2023-02-15T18:33:33;54.43;;;31.50;;
4023;SDS011;2026;51.002;13.668;2023-02-15T18:38:40;46.97;;;24.10;;
4023;SDS011;2026;51.002;13.668;2023-02-15T18:43:43;37.00;;;20.17;;
4023;SDS011;2026;51.002;13.668;2023-02-15T18:48:46;43.10;;;20.23;;
4023;SDS011;2026;51.002;13.668;2023-02-15T18:53:51;39.33;;;21.10;;
4023;SDS011;2026;51.002;13.668;2023-02-15T18:58:54;38.80;;;19.57;;
4023;SDS011;2026;51.002;13.668;2023-02-15T19:03:57;40.43;;;18.27;;
4023;SDS011;2026;51.002;13.668;2023-02-15T19:09:02;36.97;;;18.20;;
4023;SDS011;2026;51.002;13.668;2023-02-15T19:14:05;39.40;;;19.00;;
4023;SDS011;2026;51.002;13.668;2023-02-15T19:19:12;39.40;;;20.80;;
4023;SDS011;2026;51.002;13.668;2023-02-15T19:24:18;37.93;;;20.10;;
4023;SDS011;2026;51.002;13.668;2023-02-15T19:29:26;32.00;;;19.20;;
4023;SDS011;2026;51.002;13.668;2023-02-15T19:34:31;40.60;;;20.70;;
4023;SDS011;2026;51.002;13.668;2023-02-15T19:39:36;41.93;;;20.97;;
4023;SDS011;2026;51.002;13.668;2023-02-15T19:44:41;40.60;;;22.37;;
4023;SDS011;2026;51.002;13.668;2023-02-15T19:49:44;39.90;;;21.10;;
4023;SDS011;2026;51.002;13.668;2023-02-15T19:54:48;39.63;;;22.57;;
4023;SDS011;2026;51.002;13.668;2023-02-15T19:59:51;46.40;;;26.30;;
4023;SDS011;2026;51.002;13.668;2023-02-15T20:04:55;48.77;;;26.20;;
4023;SDS011;2026;51.002;13.668;2023-02-15T20:09:59;43.27;;;22.43;;
4023;SDS011;2026;51.002;13.668;2023-02-15T20:15:04;37.13;;;18.20;;
4023;SDS011;2026;51.002;13.668;2023-02-15T20:20:19;36.47;;;17.73;;
4023;SDS011;2026;51.002;13.668;2023-02-15T20:25:25;36.97;;;19.77;;
4023;SDS011;2026;51.002;13.668;2023-02-15T20:30:30;34.70;;;17.90;;
4023;SDS011;2026;51.002;13.668;2023-02-15T20:35:33;39.50;;;19.33;;
4023;SDS011;2026;51.002;13.668;2023-02-15T20:40:37;33.80;;;18.87;;
4023;SDS011;2026;51.002;13.668;2023-02-15T20:46:02;38.07;;;20.53;;
4023;SDS011;2026;51.002;13.668;2023-02-15T20:51:08;38.33;;;19.27;;
4023;SDS011;2026;51.002;13.668;2023-02-15T20:56:20;46.80;;;21.57;;
4023;SDS011;2026;51.002;13.668;2023-02-15T21:01:24;48.27;;;21.67;;
4023;SDS011;2026;51.002;13.668;2023-02-15T21:06:27;53.23;;;23.90;;
4023;SDS011;2026;51.002;13.668;2023-02-15T21:11:31;45.80;;;23.90;;
4023;SDS011;2026;51.002;13.668;2023-02-15T21:16:34;56.70;;;24.70;;
4023;SDS011;2026;51.002;13.668;2023-02-15T21:21:37;41.90;;;21.17;;
4023;SDS011;2026;51.002;13.668;2023-02-15T21:26:42;44.43;;;22.80;;
4023;SDS011;2026;51.002;13.668;2023-02-15T21:31:47;40.63;;;20.13;;
4023;SDS011;2026;51.002;13.668;2023-02-15T21:36:50;38.30;;;20.57;;
4023;SDS011;2026;51.002;13.668;2023-02-15T21:41:55;42.73;;;21.67;;
4023;SDS011;2026;51.002;13.668;2023-02-15T21:47:16;44.33;;;22.27;;
4023;SDS011;2026;51.002;13.668;2023-02-15T21:52:39;38.37;;;19.80;;
4023;SDS011;2026;51.002;13.668;2023-02-15T21:57:43;38.53;;;19.03;;
4023;SDS011;2026;51.002;13.668;2023-02-15T22:02:47;36.70;;;18.70;;
4023;SDS011;2026;51.002;13.668;2023-02-15T22:07:52;50.13;;;22.50;;
4023;SDS011;2026;51.002;13.668;2023-02-15T22:12:57;44.37;;;22.60;;
4023;SDS011;2026;51.002;13.668;2023-02-15T22:18:02;48.40;;;22.30;;
4023;SDS011;2026;51.002;13.668;2023-02-15T22:23:05;47.23;;;22.93;;
4023;SDS011;2026;51.002;13.668;2023-02-15T22:28:12;46.07;;;21.53;;
4023;SDS011;2026;51.002;13.668;2023-02-15T22:33:20;39.93;;;20.63;;
4023;SDS011;2026;51.002;13.668;2023-02-15T22:38:24;41.27;;;19.17;;
4023;SDS011;2026;51.002;13.668;2023-02-15T22:43:32;39.37;;;20.10;;
4023;SDS011;2026;51.002;13.668;2023-02-15T22:48:37;40.20;;;19.23;;
4023;SDS011;2026;51.002;13.668;2023-02-15T22:53:41;41.23;;;20.67;;
4023;SDS011;2026;51.002;13.668;2023-02-15T22:58:45;38.10;;;18.60;;
4023;SDS011;2026;51.002;13.668;2023-02-15T23:03:50;38.43;;;18.20;;
4023;SDS011;2026;51.002;13.668;2023-02-15T23:08:53;37.23;;;18.43;;
4023;SDS011;2026;51.002;13.668;2023-02-15T23:13:58;36.03;;;18.40;;
4023;SDS011;2026;51.002;13.668;2023-02-15T23:19:04;35.00;;;18.30;;
4023;SDS011;2026;51.002;13.668;2023-02-15T23:24:10;38.33;;;18.27;;
4023;SDS011;2026;51.002;13.668;2023-02-15T23:29:21;37.90;;;18.80;;
4023;SDS011;2026;51.002;13.668;2023-02-15T23:34:26;35.43;;;16.57;;
4023;SDS011;2026;51.002;13.668;2023-02-15T23:39:30;34.33;;;17.30;;
4023;SDS011;2026;51.002;13.668;2023-02-15T23:44:52;40.97;;;17.47;;
4023;SDS011;2026;51.002;13.668;2023-02-15T23:49:55;37.97;;;17.20;;
4023;SDS011;2026;51.002;13.668;2023-02-15T23:54:58;34.10;;;17.50;;
